sensor_id;sensor_type;location;lat;lon;timestamp;temperature;humidity
24410;DHT22;12543;53.364;-1.504;2023-07-28T00:01:17;16.30;99.90
24410;DHT22;12543;53.364;-1.504;2023-07-28T00:03:45;16.20;99.90
24410;DHT22;12543;53.364;-1.504;2023-07-28T00:06:12;16.20;99.90
24410;DHT22;12543;53.364;-1.504;2023-07-28T00:08:39;16.20;99.90
24410;DHT22;12543;53.364;-1.504;2023-07-28T00:11:11;16.20;99.90
24410;DHT22;12543;53.364;-1.504;2023-07-28T00:13:42;16.20;99.90
24410;DHT22;12543;53.364;-1.504;2023-07-28T00:16:10;16.20;99.90
24410;DHT22;12543;53.364;-1.504;2023-07-28T00:18:37;16.20;99.90
24410;DHT22;12543;53.364;-1.504;2023-07-28T00:21:05;16.20;99.90
24410;DHT22;12543;53.364;-1.504;2023-07-28T00:23:34;16.20;99.90
24410;DHT22;12543;53.364;-1.504;2023-07-28T00:26:02;16.20;99.90
24410;DHT22;12543;53.364;-1.504;2023-07-28T00:28:29;16.20;99.90
24410;DHT22;12543;53.364;-1.504;2023-07-28T00:30:56;16.20;99.90
24410;DHT22;12543;53.364;-1.504;2023-07-28T00:33:23;16.20;99.90
24410;DHT22;12543;53.364;-1.504;2023-07-28T00:35:50;16.10;99.90
24410;DHT22;12543;53.364;-1.504;2023-07-28T00:38:17;16.20;99.90
24410;DHT22;12543;53.364;-1.504;2023-07-28T00:40:45;16.20;99.90
24410;DHT22;12543;53.364;-1.504;2023-07-28T00:43:12;16.20;99.90
24410;DHT22;12543;53.364;-1.504;2023-07-28T00:45:39;16.20;99.90
24410;DHT22;12543;53.364;-1.504;2023-07-28T00:48:12;16.20;99.90
24410;DHT22;12543;53.364;-1.504;2023-07-28T00:50:48;16.20;99.90
24410;DHT22;12543;53.364;-1.504;2023-07-28T00:53:16;16.20;99.90
24410;DHT22;12543;53.364;-1.504;2023-07-28T00:55:43;16.20;99.90
24410;DHT22;12543;53.364;-1.504;2023-07-28T00:58:10;16.20;99.90
24410;DHT22;12543;53.364;-1.504;2023-07-28T01:00:37;16.20;99.90
24410;DHT22;12543;53.364;-1.504;2023-07-28T01:03:05;16.20;99.90
24410;DHT22;12543;53.364;-1.504;2023-07-28T01:08:50;16.20;99.90
24410;DHT22;12543;53.364;-1.504;2023-07-28T01:11:15;16.20;99.90
24410;DHT22;12543;53.364;-1.504;2023-07-28T01:13:42;16.20;99.90
24410;DHT22;12543;53.364;-1.504;2023-07-28T01:16:10;16.20;99.90
24410;DHT22;12543;53.364;-1.504;2023-07-28T01:18:37;16.20;99.90
24410;DHT22;12543;53.364;-1.504;2023-07-28T01:21:08;16.20;99.90
24410;DHT22;12543;53.364;-1.504;2023-07-28T01:26:40;16.20;99.90
24410;DHT22;12543;53.364;-1.504;2023-07-28T01:29:08;16.20;99.90
24410;DHT22;12543;53.364;-1.504;2023-07-28T01:31:36;16.20;99.90
24410;DHT22;12543;53.364;-1.504;2023-07-28T01:34:03;16.20;99.90
24410;DHT22;12543;53.364;-1.504;2023-07-28T01:36:30;16.20;99.90
24410;DHT22;12543;53.364;-1.504;2023-07-28T01:38:57;16.20;99.90
24410;DHT22;12543;53.364;-1.504;2023-07-28T01:41:25;16.10;99.90
24410;DHT22;12543;53.364;-1.504;2023-07-28T01:43:52;16.10;99.90
24410;DHT22;12543;53.364;-1.504;2023-07-28T01:46:25;16.10;99.90
24410;DHT22;12543;53.364;-1.504;2023-07-28T01:48:52;16.10;99.90
24410;DHT22;12543;53.364;-1.504;2023-07-28T01:51:19;16.10;99.90
24410;DHT22;12543;53.364;-1.504;2023-07-28T01:53:47;16.10;99.90
24410;DHT22;12543;53.364;-1.504;2023-07-28T01:56:14;16.00;99.90
24410;DHT22;12543;53.364;-1.504;2023-07-28T01:58:42;16.00;99.90
24410;DHT22;12543;53.364;-1.504;2023-07-28T02:01:09;16.00;99.90
24410;DHT22;12543;53.364;-1.504;2023-07-28T02:03:36;15.90;99.90
24410;DHT22;12543;53.364;-1.504;2023-07-28T02:06:06;15.90;99.90
24410;DHT22;12543;53.364;-1.504;2023-07-28T02:13:29;16.00;99.90
24410;DHT22;12543;53.364;-1.504;2023-07-28T02:15:56;15.80;99.90
24410;DHT22;12543;53.364;-1.504;2023-07-28T02:18:23;15.80;99.90
24410;DHT22;12543;53.364;-1.504;2023-07-28T02:20:50;15.80;99.90
24410;DHT22;12543;53.364;-1.504;2023-07-28T02:23:17;15.70;99.90
24410;DHT22;12543;53.364;-1.504;2023-07-28T02:25:44;15.80;99.90
24410;DHT22;12543;53.364;-1.504;2023-07-28T02:28:13;15.70;99.90
24410;DHT22;12543;53.364;-1.504;2023-07-28T02:30:40;15.70;99.90
24410;DHT22;12543;53.364;-1.504;2023-07-28T02:33:08;15.70;99.90
24410;DHT22;12543;53.364;-1.504;2023-07-28T02:35:35;15.70;99.90
24410;DHT22;12543;53.364;-1.504;2023-07-28T02:38:03;15.70;99.90
24410;DHT22;12543;53.364;-1.504;2023-07-28T02:40:32;15.70;99.90
24410;DHT22;12543;53.364;-1.504;2023-07-28T02:43:00;15.60;99.90
24410;DHT22;12543;53.364;-1.504;2023-07-28T02:45:27;15.60;99.90
24410;DHT22;12543;53.364;-1.504;2023-07-28T02:47:54;15.60;99.90
24410;DHT22;12543;53.364;-1.504;2023-07-28T02:50:22;15.60;99.90
24410;DHT22;12543;53.364;-1.504;2023-07-28T02:52:50;15.60;99.90
24410;DHT22;12543;53.364;-1.504;2023-07-28T02:55:17;15.60;99.90
24410;DHT22;12543;53.364;-1.504;2023-07-28T02:57:44;15.60;99.90
24410;DHT22;12543;53.364;-1.504;2023-07-28T03:00:13;15.60;99.90
24410;DHT22;12543;53.364;-1.504;2023-07-28T03:02:41;15.60;99.90
24410;DHT22;12543;53.364;-1.504;2023-07-28T03:05:08;15.60;99.90
24410;DHT22;12543;53.364;-1.504;2023-07-28T03:07:38;15.50;99.90
24410;DHT22;12543;53.364;-1.504;2023-07-28T03:10:08;15.50;99.90
24410;DHT22;12543;53.364;-1.504;2023-07-28T03:12:36;15.50;99.90
24410;DHT22;12543;53.364;-1.504;2023-07-28T03:15:04;15.50;99.90
24410;DHT22;12543;53.364;-1.504;2023-07-28T03:17:33;15.40;99.90
24410;DHT22;12543;53.364;-1.504;2023-07-28T03:20:00;15.40;99.90
24410;DHT22;12543;53.364;-1.504;2023-07-28T03:22:28;15.40;99.90
24410;DHT22;12543;53.364;-1.504;2023-07-28T03:24:57;15.40;99.90
24410;DHT22;12543;53.364;-1.504;2023-07-28T03:27:24;15.40;99.90
24410;DHT22;12543;53.364;-1.504;2023-07-28T03:29:51;15.40;99.90
24410;DHT22;12543;53.364;-1.504;2023-07-28T03:32:21;15.40;99.90
24410;DHT22;12543;53.364;-1.504;2023-07-28T03:34:49;15.40;99.90
24410;DHT22;12543;53.364;-1.504;2023-07-28T03:37:19;15.40;99.90
24410;DHT22;12543;53.364;-1.504;2023-07-28T03:39:47;15.30;99.90
24410;DHT22;12543;53.364;-1.504;2023-07-28T03:42:14;15.40;99.90
24410;DHT22;12543;53.364;-1.504;2023-07-28T03:44:42;15.30;99.90
24410;DHT22;12543;53.364;-1.504;2023-07-28T03:47:09;15.30;99.90
24410;DHT22;12543;53.364;-1.504;2023-07-28T03:49:36;15.30;99.90
24410;DHT22;12543;53.364;-1.504;2023-07-28T03:52:09;15.30;99.90
24410;DHT22;12543;53.364;-1.504;2023-07-28T03:54:39;15.30;99.90
24410;DHT22;12543;53.364;-1.504;2023-07-28T03:57:10;15.30;99.90
24410;DHT22;12543;53.364;-1.504;2023-07-28T03:59:39;15.30;99.90
24410;DHT22;12543;53.364;-1.504;2023-07-28T04:02:06;15.30;99.90
24410;DHT22;12543;53.364;-1.504;2023-07-28T04:04:35;15.30;99.90
24410;DHT22;12543;53.364;-1.504;2023-07-28T04:07:03;15.30;99.90
24410;DHT22;12543;53.364;-1.504;2023-07-28T04:09:31;15.30;99.90
24410;DHT22;12543;53.364;-1.504;2023-07-28T04:11:58;15.30;99.90
24410;DHT22;12543;53.364;-1.504;2023-07-28T04:14:28;15.30;99.90
24410;DHT22;12543;53.364;-1.504;2023-07-28T04:16:56;15.30;99.90
24410;DHT22;12543;53.364;-1.504;2023-07-28T04:19:24;15.20;99.90
24410;DHT22;12543;53.364;-1.504;2023-07-28T04:21:51;15.30;99.90
24410;DHT22;12543;53.364;-1.504;2023-07-28T04:24:19;15.30;99.90
24410;DHT22;12543;53.364;-1.504;2023-07-28T04:26:48;15.20;99.90
24410;DHT22;12543;53.364;-1.504;2023-07-28T04:29:37;15.30;99.90
24410;DHT22;12543;53.364;-1.504;2023-07-28T04:32:19;15.20;99.90
24410;DHT22;12543;53.364;-1.504;2023-07-28T04:34:48;15.30;99.90
24410;DHT22;12543;53.364;-1.504;2023-07-28T04:37:42;15.20;99.90
24410;DHT22;12543;53.364;-1.504;2023-07-28T04:40:22;15.20;99.90
24410;DHT22;12543;53.364;-1.504;2023-07-28T04:42:52;15.30;99.90
24410;DHT22;12543;53.364;-1.504;2023-07-28T04:45:20;15.30;99.90
24410;DHT22;12543;53.364;-1.504;2023-07-28T04:47:48;15.30;99.90
24410;DHT22;12543;53.364;-1.504;2023-07-28T04:50:16;15.30;99.90
24410;DHT22;12543;53.364;-1.504;2023-07-28T04:53:16;15.30;99.90
24410;DHT22;12543;53.364;-1.504;2023-07-28T04:56:07;15.40;99.90
24410;DHT22;12543;53.364;-1.504;2023-07-28T04:58:35;15.40;99.90
24410;DHT22;12543;53.364;-1.504;2023-07-28T05:01:03;15.40;99.90
24410;DHT22;12543;53.364;-1.504;2023-07-28T05:03:45;15.40;99.90
24410;DHT22;12543;53.364;-1.504;2023-07-28T05:06:23;15.50;99.90
24410;DHT22;12543;53.364;-1.504;2023-07-28T05:08:51;15.50;99.90
24410;DHT22;12543;53.364;-1.504;2023-07-28T05:11:39;15.50;99.90
24410;DHT22;12543;53.364;-1.504;2023-07-28T05:14:16;15.50;99.90
24410;DHT22;12543;53.364;-1.504;2023-07-28T05:16:44;15.60;99.90
24410;DHT22;12543;53.364;-1.504;2023-07-28T05:19:32;15.60;99.90
24410;DHT22;12543;53.364;-1.504;2023-07-28T05:22:25;15.60;99.90
24410;DHT22;12543;53.364;-1.504;2023-07-28T05:24:55;15.60;99.90
24410;DHT22;12543;53.364;-1.504;2023-07-28T05:27:28;15.70;99.90
24410;DHT22;12543;53.364;-1.504;2023-07-28T05:29:59;15.60;99.90
24410;DHT22;12543;53.364;-1.504;2023-07-28T05:32:30;15.60;99.90
24410;DHT22;12543;53.364;-1.504;2023-07-28T05:35:34;15.60;99.90
24410;DHT22;12543;53.364;-1.504;2023-07-28T05:38:02;15.60;99.90
24410;DHT22;12543;53.364;-1.504;2023-07-28T05:40:29;15.60;99.90
24410;DHT22;12543;53.364;-1.504;2023-07-28T05:43:01;15.60;99.90
24410;DHT22;12543;53.364;-1.504;2023-07-28T05:45:36;15.60;99.90
24410;DHT22;12543;53.364;-1.504;2023-07-28T05:48:03;15.50;99.90
24410;DHT22;12543;53.364;-1.504;2023-07-28T05:50:31;15.50;99.90
24410;DHT22;12543;53.364;-1.504;2023-07-28T05:52:58;15.60;99.90
24410;DHT22;12543;53.364;-1.504;2023-07-28T05:55:26;15.60;99.90
24410;DHT22;12543;53.364;-1.504;2023-07-28T05:57:57;15.60;99.90
24410;DHT22;12543;53.364;-1.504;2023-07-28T06:00:24;15.60;99.90
24410;DHT22;12543;53.364;-1.504;2023-07-28T06:02:52;15.60;99.90
24410;DHT22;12543;53.364;-1.504;2023-07-28T06:18:03;16.20;99.90
24410;DHT22;12543;53.364;-1.504;2023-07-28T06:20:30;16.20;99.90
24410;DHT22;12543;53.364;-1.504;2023-07-28T06:23:15;16.20;99.90
24410;DHT22;12543;53.364;-1.504;2023-07-28T06:26:19;16.20;99.90
24410;DHT22;12543;53.364;-1.504;2023-07-28T06:28:49;16.20;99.90
24410;DHT22;12543;53.364;-1.504;2023-07-28T06:31:18;16.20;99.90
24410;DHT22;12543;53.364;-1.504;2023-07-28T06:33:48;16.20;99.90
24410;DHT22;12543;53.364;-1.504;2023-07-28T06:36:22;16.20;99.90
24410;DHT22;12543;53.364;-1.504;2023-07-28T06:39:11;16.20;99.90
24410;DHT22;12543;53.364;-1.504;2023-07-28T06:41:52;16.30;99.90
24410;DHT22;12543;53.364;-1.504;2023-07-28T06:44:31;16.20;99.90
24410;DHT22;12543;53.364;-1.504;2023-07-28T06:50:56;16.50;99.90
24410;DHT22;12543;53.364;-1.504;2023-07-28T06:53:27;16.50;99.90
24410;DHT22;12543;53.364;-1.504;2023-07-28T06:55:57;16.50;99.90
24410;DHT22;12543;53.364;-1.504;2023-07-28T07:01:16;16.40;99.90
24410;DHT22;12543;53.364;-1.504;2023-07-28T07:03:45;16.70;99.90
24410;DHT22;12543;53.364;-1.504;2023-07-28T07:16:17;16.90;99.90
24410;DHT22;12543;53.364;-1.504;2023-07-28T07:18:52;17.10;99.90
24410;DHT22;12543;53.364;-1.504;2023-07-28T07:21:23;17.00;99.90
24410;DHT22;12543;53.364;-1.504;2023-07-28T07:23:51;17.00;99.90
24410;DHT22;12543;53.364;-1.504;2023-07-28T07:26:24;17.10;99.90
24410;DHT22;12543;53.364;-1.504;2023-07-28T07:28:52;17.10;99.90
24410;DHT22;12543;53.364;-1.504;2023-07-28T07:31:20;17.10;99.90
24410;DHT22;12543;53.364;-1.504;2023-07-28T07:33:47;17.20;99.90
24410;DHT22;12543;53.364;-1.504;2023-07-28T07:36:15;17.20;99.90
24410;DHT22;12543;53.364;-1.504;2023-07-28T07:38:44;17.30;99.90
24410;DHT22;12543;53.364;-1.504;2023-07-28T07:41:16;17.30;99.90
24410;DHT22;12543;53.364;-1.504;2023-07-28T07:43:48;17.30;99.90
24410;DHT22;12543;53.364;-1.504;2023-07-28T07:46:17;17.40;99.90
24410;DHT22;12543;53.364;-1.504;2023-07-28T07:48:47;17.40;99.90
24410;DHT22;12543;53.364;-1.504;2023-07-28T07:51:15;17.50;99.90
24410;DHT22;12543;53.364;-1.504;2023-07-28T07:53:42;17.60;99.90
24410;DHT22;12543;53.364;-1.504;2023-07-28T07:56:10;17.70;99.90
24410;DHT22;12543;53.364;-1.504;2023-07-28T07:58:37;17.80;99.90
24410;DHT22;12543;53.364;-1.504;2023-07-28T08:01:04;17.80;99.90
24410;DHT22;12543;53.364;-1.504;2023-07-28T08:03:32;17.90;99.90
24410;DHT22;12543;53.364;-1.504;2023-07-28T08:05:59;17.90;99.90
24410;DHT22;12543;53.364;-1.504;2023-07-28T08:08:26;18.00;99.90
24410;DHT22;12543;53.364;-1.504;2023-07-28T08:10:54;18.00;99.90
24410;DHT22;12543;53.364;-1.504;2023-07-28T08:13:22;18.10;99.90
24410;DHT22;12543;53.364;-1.504;2023-07-28T08:15:49;18.10;99.90
24410;DHT22;12543;53.364;-1.504;2023-07-28T08:18:17;18.10;99.90
24410;DHT22;12543;53.364;-1.504;2023-07-28T08:20:45;18.10;99.90
24410;DHT22;12543;53.364;-1.504;2023-07-28T08:23:13;18.20;99.90
24410;DHT22;12543;53.364;-1.504;2023-07-28T08:25:40;18.20;99.90
24410;DHT22;12543;53.364;-1.504;2023-07-28T08:28:07;18.30;99.90
24410;DHT22;12543;53.364;-1.504;2023-07-28T08:30:36;18.30;99.90
24410;DHT22;12543;53.364;-1.504;2023-07-28T08:33:03;18.40;99.90
24410;DHT22;12543;53.364;-1.504;2023-07-28T08:35:31;18.50;99.90
24410;DHT22;12543;53.364;-1.504;2023-07-28T08:37:58;18.50;99.90
24410;DHT22;12543;53.364;-1.504;2023-07-28T08:40:26;18.60;99.90
24410;DHT22;12543;53.364;-1.504;2023-07-28T08:42:54;18.70;99.90
24410;DHT22;12543;53.364;-1.504;2023-07-28T08:45:22;18.70;99.90
24410;DHT22;12543;53.364;-1.504;2023-07-28T08:47:51;18.90;99.90
24410;DHT22;12543;53.364;-1.504;2023-07-28T08:50:19;18.90;99.90
24410;DHT22;12543;53.364;-1.504;2023-07-28T08:52:47;19.10;99.90
24410;DHT22;12543;53.364;-1.504;2023-07-28T08:55:16;19.10;99.90
24410;DHT22;12543;53.364;-1.504;2023-07-28T08:58:17;19.10;99.90
24410;DHT22;12543;53.364;-1.504;2023-07-28T09:00:50;19.20;99.90
24410;DHT22;12543;53.364;-1.504;2023-07-28T09:03:18;19.20;99.90
24410;DHT22;12543;53.364;-1.504;2023-07-28T09:05:47;19.10;99.90
24410;DHT22;12543;53.364;-1.504;2023-07-28T09:08:15;19.10;99.90
24410;DHT22;12543;53.364;-1.504;2023-07-28T09:10:46;19.10;99.90
24410;DHT22;12543;53.364;-1.504;2023-07-28T09:13:17;19.00;99.90
24410;DHT22;12543;53.364;-1.504;2023-07-28T09:15:47;19.00;99.90
24410;DHT22;12543;53.364;-1.504;2023-07-28T09:18:16;18.90;99.90
24410;DHT22;12543;53.364;-1.504;2023-07-28T09:20:43;18.90;99.90
24410;DHT22;12543;53.364;-1.504;2023-07-28T09:23:13;18.80;99.90
24410;DHT22;12543;53.364;-1.504;2023-07-28T09:25:41;18.70;99.90
24410;DHT22;12543;53.364;-1.504;2023-07-28T09:28:09;18.70;99.90
24410;DHT22;12543;53.364;-1.504;2023-07-28T09:30:49;18.50;99.90
24410;DHT22;12543;53.364;-1.504;2023-07-28T09:33:36;18.50;99.90
24410;DHT22;12543;53.364;-1.504;2023-07-28T09:36:11;18.40;99.90
24410;DHT22;12543;53.364;-1.504;2023-07-28T09:38:40;18.50;99.90
24410;DHT22;12543;53.364;-1.504;2023-07-28T09:41:09;18.40;99.90
24410;DHT22;12543;53.364;-1.504;2023-07-28T09:43:40;18.40;99.90
24410;DHT22;12543;53.364;-1.504;2023-07-28T09:46:09;18.50;99.90
24410;DHT22;12543;53.364;-1.504;2023-07-28T09:48:45;18.50;99.90
24410;DHT22;12543;53.364;-1.504;2023-07-28T09:51:17;18.50;99.90
24410;DHT22;12543;53.364;-1.504;2023-07-28T09:53:50;18.50;99.90
24410;DHT22;12543;53.364;-1.504;2023-07-28T09:56:23;18.50;99.90
24410;DHT22;12543;53.364;-1.504;2023-07-28T09:58:53;18.50;99.90
24410;DHT22;12543;53.364;-1.504;2023-07-28T10:01:20;18.40;99.90
24410;DHT22;12543;53.364;-1.504;2023-07-28T10:03:51;18.40;99.90
24410;DHT22;12543;53.364;-1.504;2023-07-28T10:06:20;18.40;99.90
24410;DHT22;12543;53.364;-1.504;2023-07-28T10:11:17;18.30;99.90
24410;DHT22;12543;53.364;-1.504;2023-07-28T10:13:45;18.30;99.90
24410;DHT22;12543;53.364;-1.504;2023-07-28T10:16:16;18.30;99.90
24410;DHT22;12543;53.364;-1.504;2023-07-28T10:18:54;18.20;99.90
24410;DHT22;12543;53.364;-1.504;2023-07-28T10:21:21;18.20;99.90
24410;DHT22;12543;53.364;-1.504;2023-07-28T10:23:56;18.20;99.90
24410;DHT22;12543;53.364;-1.504;2023-07-28T10:27:01;18.20;99.90
24410;DHT22;12543;53.364;-1.504;2023-07-28T10:29:37;18.20;99.90
24410;DHT22;12543;53.364;-1.504;2023-07-28T10:32:06;18.20;99.90
24410;DHT22;12543;53.364;-1.504;2023-07-28T10:34:34;18.20;99.90
24410;DHT22;12543;53.364;-1.504;2023-07-28T10:37:02;18.30;99.90
24410;DHT22;12543;53.364;-1.504;2023-07-28T10:39:29;18.30;99.90
24410;DHT22;12543;53.364;-1.504;2023-07-28T10:42:08;18.30;99.90
24410;DHT22;12543;53.364;-1.504;2023-07-28T10:44:37;18.30;99.90
24410;DHT22;12543;53.364;-1.504;2023-07-28T10:47:11;18.30;99.90
24410;DHT22;12543;53.364;-1.504;2023-07-28T10:49:39;18.30;99.90
24410;DHT22;12543;53.364;-1.504;2023-07-28T10:52:07;18.30;99.90
24410;DHT22;12543;53.364;-1.504;2023-07-28T10:54:34;18.20;99.90
24410;DHT22;12543;53.364;-1.504;2023-07-28T10:57:04;18.20;99.90
24410;DHT22;12543;53.364;-1.504;2023-07-28T10:59:32;18.20;99.90
24410;DHT22;12543;53.364;-1.504;2023-07-28T11:02:00;18.20;99.90
24410;DHT22;12543;53.364;-1.504;2023-07-28T11:04:27;18.30;99.90
24410;DHT22;12543;53.364;-1.504;2023-07-28T11:06:54;18.30;99.90
24410;DHT22;12543;53.364;-1.504;2023-07-28T11:09:23;18.40;99.90
24410;DHT22;12543;53.364;-1.504;2023-07-28T11:11:52;18.40;99.90
24410;DHT22;12543;53.364;-1.504;2023-07-28T11:14:20;18.40;99.90
24410;DHT22;12543;53.364;-1.504;2023-07-28T11:16:47;18.50;99.90
24410;DHT22;12543;53.364;-1.504;2023-07-28T11:19:16;18.60;99.90
24410;DHT22;12543;53.364;-1.504;2023-07-28T11:21:47;18.60;99.90
24410;DHT22;12543;53.364;-1.504;2023-07-28T11:24:21;18.60;99.90
24410;DHT22;12543;53.364;-1.504;2023-07-28T11:26:51;18.70;99.90
24410;DHT22;12543;53.364;-1.504;2023-07-28T11:29:21;18.80;99.90
24410;DHT22;12543;53.364;-1.504;2023-07-28T11:32:00;19.00;99.90
24410;DHT22;12543;53.364;-1.504;2023-07-28T11:34:28;19.20;99.90
24410;DHT22;12543;53.364;-1.504;2023-07-28T11:36:55;19.50;99.90
24410;DHT22;12543;53.364;-1.504;2023-07-28T11:39:22;19.70;99.90
24410;DHT22;12543;53.364;-1.504;2023-07-28T11:41:51;19.90;99.90
24410;DHT22;12543;53.364;-1.504;2023-07-28T11:44:22;20.10;99.90
24410;DHT22;12543;53.364;-1.504;2023-07-28T11:46:52;20.30;99.90
24410;DHT22;12543;53.364;-1.504;2023-07-28T11:49:22;20.50;99.90
24410;DHT22;12543;53.364;-1.504;2023-07-28T11:51:51;20.80;99.90
24410;DHT22;12543;53.364;-1.504;2023-07-28T11:54:21;21.10;99.90
24410;DHT22;12543;53.364;-1.504;2023-07-28T11:56:51;21.50;99.90
24410;DHT22;12543;53.364;-1.504;2023-07-28T11:59:19;21.70;99.90
24410;DHT22;12543;53.364;-1.504;2023-07-28T12:02:01;21.80;99.90
24410;DHT22;12543;53.364;-1.504;2023-07-28T12:04:35;21.90;99.90
24410;DHT22;12543;53.364;-1.504;2023-07-28T12:09:49;22.00;99.90
24410;DHT22;12543;53.364;-1.504;2023-07-28T12:12:29;22.10;99.90
24410;DHT22;12543;53.364;-1.504;2023-07-28T12:14:57;22.30;99.90
24410;DHT22;12543;53.364;-1.504;2023-07-28T12:17:34;22.40;99.90
24410;DHT22;12543;53.364;-1.504;2023-07-28T12:20:08;22.30;99.90
24410;DHT22;12543;53.364;-1.504;2023-07-28T12:22:47;22.20;99.90
24410;DHT22;12543;53.364;-1.504;2023-07-28T12:25:14;22.10;99.90
24410;DHT22;12543;53.364;-1.504;2023-07-28T12:27:42;22.00;99.90
24410;DHT22;12543;53.364;-1.504;2023-07-28T12:30:09;21.80;99.90
24410;DHT22;12543;53.364;-1.504;2023-07-28T12:32:40;21.80;99.90
24410;DHT22;12543;53.364;-1.504;2023-07-28T12:35:28;21.90;99.90
24410;DHT22;12543;53.364;-1.504;2023-07-28T12:38:03;22.10;99.90
24410;DHT22;12543;53.364;-1.504;2023-07-28T12:40:38;22.10;99.90
24410;DHT22;12543;53.364;-1.504;2023-07-28T12:43:08;22.20;99.90
24410;DHT22;12543;53.364;-1.504;2023-07-28T12:45:57;22.50;99.90
24410;DHT22;12543;53.364;-1.504;2023-07-28T12:48:27;22.80;99.90
24410;DHT22;12543;53.364;-1.504;2023-07-28T12:50:54;23.10;99.90
24410;DHT22;12543;53.364;-1.504;2023-07-28T12:53:24;23.30;99.90
24410;DHT22;12543;53.364;-1.504;2023-07-28T12:55:51;23.60;99.90
24410;DHT22;12543;53.364;-1.504;2023-07-28T12:58:22;23.70;99.90
24410;DHT22;12543;53.364;-1.504;2023-07-28T13:00:52;23.80;99.90
24410;DHT22;12543;53.364;-1.504;2023-07-28T13:03:22;23.70;99.90
24410;DHT22;12543;53.364;-1.504;2023-07-28T13:05:50;23.60;99.90
24410;DHT22;12543;53.364;-1.504;2023-07-28T13:08:17;23.40;99.90
24410;DHT22;12543;53.364;-1.504;2023-07-28T13:10:44;23.20;99.90
24410;DHT22;12543;53.364;-1.504;2023-07-28T13:13:15;23.00;99.90
24410;DHT22;12543;53.364;-1.504;2023-07-28T13:15:43;22.90;99.90
24410;DHT22;12543;53.364;-1.504;2023-07-28T13:18:10;22.90;99.90
24410;DHT22;12543;53.364;-1.504;2023-07-28T13:20:37;22.90;99.90
24410;DHT22;12543;53.364;-1.504;2023-07-28T13:23:04;22.90;99.90
24410;DHT22;12543;53.364;-1.504;2023-07-28T13:25:31;22.70;99.90
24410;DHT22;12543;53.364;-1.504;2023-07-28T13:27:59;22.60;99.90
24410;DHT22;12543;53.364;-1.504;2023-07-28T13:30:26;22.60;99.90
24410;DHT22;12543;53.364;-1.504;2023-07-28T13:32:56;22.50;99.90
24410;DHT22;12543;53.364;-1.504;2023-07-28T13:35:23;22.50;99.90
24410;DHT22;12543;53.364;-1.504;2023-07-28T13:37:52;22.50;99.90
24410;DHT22;12543;53.364;-1.504;2023-07-28T13:40:19;22.50;99.90
24410;DHT22;12543;53.364;-1.504;2023-07-28T13:42:47;22.50;99.90
24410;DHT22;12543;53.364;-1.504;2023-07-28T13:45:15;22.60;99.90
24410;DHT22;12543;53.364;-1.504;2023-07-28T13:47:42;22.70;99.90
24410;DHT22;12543;53.364;-1.504;2023-07-28T13:50:09;22.70;99.90
24410;DHT22;12543;53.364;-1.504;2023-07-28T13:52:36;22.70;99.90
24410;DHT22;12543;53.364;-1.504;2023-07-28T13:55:04;22.60;99.90
24410;DHT22;12543;53.364;-1.504;2023-07-28T13:57:34;22.60;99.90
24410;DHT22;12543;53.364;-1.504;2023-07-28T14:00:02;22.60;99.90
24410;DHT22;12543;53.364;-1.504;2023-07-28T14:02:30;22.60;99.90
24410;DHT22;12543;53.364;-1.504;2023-07-28T14:04:57;22.50;99.90
24410;DHT22;12543;53.364;-1.504;2023-07-28T14:07:25;22.50;99.90
24410;DHT22;12543;53.364;-1.504;2023-07-28T14:09:52;22.40;99.90
24410;DHT22;12543;53.364;-1.504;2023-07-28T14:12:20;22.40;99.90
24410;DHT22;12543;53.364;-1.504;2023-07-28T14:14:49;22.20;99.90
24410;DHT22;12543;53.364;-1.504;2023-07-28T14:17:18;22.20;99.90
24410;DHT22;12543;53.364;-1.504;2023-07-28T14:19:46;22.00;99.90
24410;DHT22;12543;53.364;-1.504;2023-07-28T14:22:14;21.90;99.90
24410;DHT22;12543;53.364;-1.504;2023-07-28T14:24:41;21.80;99.90
24410;DHT22;12543;53.364;-1.504;2023-07-28T14:27:08;21.60;99.90
24410;DHT22;12543;53.364;-1.504;2023-07-28T14:29:36;21.50;99.90
24410;DHT22;12543;53.364;-1.504;2023-07-28T14:32:03;21.50;99.90
24410;DHT22;12543;53.364;-1.504;2023-07-28T14:34:30;21.50;99.90
24410;DHT22;12543;53.364;-1.504;2023-07-28T14:36:57;21.40;99.90
24410;DHT22;12543;53.364;-1.504;2023-07-28T14:39:24;21.40;99.90
24410;DHT22;12543;53.364;-1.504;2023-07-28T14:41:52;21.40;99.90
24410;DHT22;12543;53.364;-1.504;2023-07-28T14:44:19;21.50;99.90
24410;DHT22;12543;53.364;-1.504;2023-07-28T14:46:47;21.50;99.90
24410;DHT22;12543;53.364;-1.504;2023-07-28T14:49:14;21.50;99.90
24410;DHT22;12543;53.364;-1.504;2023-07-28T14:51:43;21.60;99.90
24410;DHT22;12543;53.364;-1.504;2023-07-28T14:54:10;21.60;99.90
24410;DHT22;12543;53.364;-1.504;2023-07-28T14:56:38;21.70;99.90
24410;DHT22;12543;53.364;-1.504;2023-07-28T14:59:05;21.70;99.90
24410;DHT22;12543;53.364;-1.504;2023-07-28T15:01:32;21.80;99.90
24410;DHT22;12543;53.364;-1.504;2023-07-28T15:04:00;21.80;99.90
24410;DHT22;12543;53.364;-1.504;2023-07-28T15:06:30;21.80;99.90
24410;DHT22;12543;53.364;-1.504;2023-07-28T15:08:57;21.80;99.90
24410;DHT22;12543;53.364;-1.504;2023-07-28T15:11:25;21.80;99.90
24410;DHT22;12543;53.364;-1.504;2023-07-28T15:13:52;21.80;99.90
24410;DHT22;12543;53.364;-1.504;2023-07-28T15:16:19;21.80;99.90
24410;DHT22;12543;53.364;-1.504;2023-07-28T15:18:47;21.80;99.90
24410;DHT22;12543;53.364;-1.504;2023-07-28T15:21:14;21.80;99.90
24410;DHT22;12543;53.364;-1.504;2023-07-28T15:23:42;21.80;99.90
24410;DHT22;12543;53.364;-1.504;2023-07-28T15:26:09;21.80;99.90
24410;DHT22;12543;53.364;-1.504;2023-07-28T15:28:36;21.80;99.90
24410;DHT22;12543;53.364;-1.504;2023-07-28T15:31:03;21.80;99.90
24410;DHT22;12543;53.364;-1.504;2023-07-28T15:33:31;21.80;99.90
24410;DHT22;12543;53.364;-1.504;2023-07-28T15:35:59;21.80;99.90
24410;DHT22;12543;53.364;-1.504;2023-07-28T15:38:26;21.70;99.90
24410;DHT22;12543;53.364;-1.504;2023-07-28T15:40:53;21.70;99.90
24410;DHT22;12543;53.364;-1.504;2023-07-28T15:43:24;21.70;99.90
24410;DHT22;12543;53.364;-1.504;2023-07-28T15:45:52;21.70;99.90
24410;DHT22;12543;53.364;-1.504;2023-07-28T15:48:22;21.60;99.90
24410;DHT22;12543;53.364;-1.504;2023-07-28T15:50:49;21.60;99.90
24410;DHT22;12543;53.364;-1.504;2023-07-28T15:53:19;21.50;99.90
24410;DHT22;12543;53.364;-1.504;2023-07-28T15:55:47;21.50;99.90
24410;DHT22;12543;53.364;-1.504;2023-07-28T15:58:14;21.40;99.90
24410;DHT22;12543;53.364;-1.504;2023-07-28T16:00:44;21.40;99.90
24410;DHT22;12543;53.364;-1.504;2023-07-28T16:03:17;21.30;99.90
24410;DHT22;12543;53.364;-1.504;2023-07-28T16:05:45;21.40;99.90
24410;DHT22;12543;53.364;-1.504;2023-07-28T16:08:12;21.30;99.90
24410;DHT22;12543;53.364;-1.504;2023-07-28T16:10:40;21.30;99.90
24410;DHT22;12543;53.364;-1.504;2023-07-28T16:13:07;21.30;99.90
24410;DHT22;12543;53.364;-1.504;2023-07-28T16:15:36;21.30;99.90
24410;DHT22;12543;53.364;-1.504;2023-07-28T16:18:03;21.20;99.90